Time;durP1;ratioP1;P1;durP2;ratioP2;P2;SDS_P1;SDS_P2;PMS_P1;PMS_P2;Temp;Humidity;BMP_temperature;BMP_pressure;BME280_temperature;BME280_humidity;BME280_pressure;Samples;Min_cycle;Max_cycle;Signal;HPM_P1;HPM_P2
2022/06/15 00:01:19;;;;;;;10.35;5.88;;;13.30;99.90;;;;;;5076979;28;20058;-54
2022/06/15 00:03:45;;;;;;;11.38;6.10;;;13.20;99.90;;;;;;5077053;28;20446;-54
2022/06/15 00:06:20;;;;;;;12.25;5.63;;;13.30;99.90;;;;;;5077159;28;20036;-54
2022/06/15 00:08:51;;;;;;;9.13;6.18;;;13.20;99.90;;;;;;5077109;28;20051;-54
2022/06/15 00:11:25;;;;;;;10.18;6.28;;;13.10;99.90;;;;;;5077140;28;20046;-54
2022/06/15 00:13:53;;;;;;;8.85;5.95;;;13.20;99.90;;;;;;5076864;28;20036;-54
2022/06/15 00:16:19;;;;;;;14.55;7.00;;;13.10;99.90;;;;;;5077091;28;20470;-54
2022/06/15 00:18:46;;;;;;;14.10;6.75;;;13.00;99.90;;;;;;5076229;28;20033;-54
2022/06/15 00:21:14;;;;;;;13.30;6.35;;;13.00;99.90;;;;;;5076866;28;20107;-54
2022/06/15 00:23:40;;;;;;;17.27;6.10;;;13.00;99.90;;;;;;5076823;28;20024;-54
2022/06/15 00:26:06;;;;;;;13.57;7.15;;;13.00;99.90;;;;;;5076788;28;20036;-54
2022/06/15 00:28:34;;;;;;;11.45;6.32;;;13.00;99.90;;;;;;5076658;28;20495;-54
2022/06/15 00:31:00;;;;;;;9.02;5.80;;;13.00;99.90;;;;;;5076901;28;20067;-54
2022/06/15 00:33:27;;;;;;;14.68;6.43;;;13.00;99.90;;;;;;5075084;28;20025;-54
2022/06/15 00:36:01;;;;;;;14.45;6.20;;;13.00;99.90;;;;;;5076610;28;20035;-54
2022/06/15 00:38:37;;;;;;;11.23;6.43;;;12.90;99.90;;;;;;5076673;28;20028;-54
2022/06/15 00:41:06;;;;;;;9.45;6.28;;;12.90;99.90;;;;;;5076370;28;20028;-54
2022/06/15 00:43:38;;;;;;;11.43;5.85;;;12.80;99.90;;;;;;5076556;28;20471;-54
2022/06/15 00:46:23;;;;;;;9.82;5.80;;;12.80;99.90;;;;;;5074996;28;20402;-54
2022/06/15 00:48:58;;;;;;;12.05;6.40;;;12.80;99.90;;;;;;5076450;28;20024;-54
2022/06/15 00:51:25;;;;;;;10.40;5.60;;;12.80;99.90;;;;;;5074773;28;20485;-55
2022/06/15 00:53:52;;;;;;;10.98;5.47;;;12.70;99.90;;;;;;5076470;28;20016;-55
2022/06/15 00:56:19;;;;;;;11.98;6.50;;;12.80;99.90;;;;;;5076199;28;20425;-55
2022/06/15 00:58:48;;;;;;;12.20;6.10;;;12.80;99.90;;;;;;5076178;28;20074;-55
2022/06/15 01:01:14;;;;;;;16.15;6.15;;;12.70;99.90;;;;;;5076154;28;20032;-54
2022/06/15 01:03:41;;;;;;;10.32;5.88;;;12.70;99.90;;;;;;5076014;28;20027;-55
2022/06/15 01:06:16;;;;;;;9.38;5.60;;;12.70;99.90;;;;;;5074755;28;20037;-54
2022/06/15 01:09:04;;;;;;;10.48;6.20;;;12.60;99.90;;;;;;5075865;28;20060;-55
2022/06/15 01:11:51;;;;;;;10.25;6.25;;;12.50;99.90;;;;;;5074789;28;20028;-55
2022/06/15 01:14:20;;;;;;;12.38;6.22;;;12.50;99.90;;;;;;5074700;28;20098;-54
2022/06/15 01:17:07;;;;;;;11.00;5.70;;;12.50;99.90;;;;;;5076208;28;20025;-55
2022/06/15 01:19:55;;;;;;;13.50;5.72;;;12.60;99.90;;;;;;5074591;28;20028;-55
2022/06/15 01:22:36;;;;;;;9.40;5.95;;;12.70;99.90;;;;;;5074506;28;20021;-54
2022/06/15 01:25:11;;;;;;;12.18;6.28;;;12.50;99.90;;;;;;5074402;28;20029;-55
2022/06/15 01:28:05;;;;;;;13.55;5.95;;;12.40;99.90;;;;;;5074137;28;20039;-55
2022/06/15 01:30:48;;;;;;;7.60;5.10;;;12.30;99.90;;;;;;5074851;28;20025;-55
2022/06/15 01:33:35;;;;;;;10.23;5.45;;;12.30;99.90;;;;;;5074511;28;20452;-55
2022/06/15 01:36:13;;;;;;;8.48;5.82;;;12.30;99.90;;;;;;5090979;28;20422;-54
2022/06/15 01:38:54;;;;;;;9.50;6.45;;;12.30;99.90;;;;;;5075501;28;20501;-55
2022/06/15 01:41:31;;;;;;;9.82;6.07;;;12.40;99.90;;;;;;5075207;28;20028;-55
2022/06/15 01:44:08;;;;;;;13.73;6.15;;;12.40;99.90;;;;;;5074028;28;20154;-55
2022/06/15 01:46:39;;;;;;;10.65;5.90;;;12.30;99.90;;;;;;5073929;28;20028;-55
2022/06/15 01:49:08;;;;;;;9.30;5.72;;;12.20;99.90;;;;;;5074142;28;20021;-55
2022/06/15 01:51:41;;;;;;;10.60;6.13;;;12.20;99.90;;;;;;5073603;28;20048;-55
2022/06/15 01:54:13;;;;;;;9.77;5.45;;;12.20;99.90;;;;;;5075110;28;20033;-55
2022/06/15 01:56:47;;;;;;;11.35;5.82;;;12.30;99.90;;;;;;5073680;28;20485;-55
2022/06/15 01:59:25;;;;;;;9.40;5.93;;;12.30;99.90;;;;;;5073712;28;20028;-55
2022/06/15 02:02:12;;;;;;;12.50;6.53;;;12.30;99.90;;;;;;5073755;28;20035;-55
2022/06/15 02:05:06;;;;;;;9.65;5.65;;;12.40;99.90;;;;;;5090373;28;20036;-55
2022/06/15 02:08:10;;;;;;;9.07;6.30;;;12.20;99.90;;;;;;5073561;28;20478;-55
2022/06/15 02:10:52;;;;;;;8.98;5.70;;;12.10;99.90;;;;;;5073591;28;20032;-55
2022/06/15 02:13:35;;;;;;;10.05;5.93;;;12.00;99.90;;;;;;5073375;28;20112;-55
2022/06/15 02:16:06;;;;;;;10.07;5.72;;;12.00;99.90;;;;;;5074828;28;20028;-55
2022/06/15 02:18:35;;;;;;;10.43;6.55;;;12.00;99.90;;;;;;5073614;28;20503;-55
2022/06/15 02:21:05;;;;;;;12.75;7.20;;;11.90;99.90;;;;;;5073343;28;20394;-55
2022/06/15 02:23:33;;;;;;;;;;;11.90;99.90;;;;;;5075441;28;20028;-55
2022/06/15 02:26:01;;;;;;;12.02;6.05;;;11.90;99.90;;;;;;5073228;28;20004;-55
2022/06/15 02:28:33;;;;;;;10.43;6.97;;;12.00;99.90;;;;;;5074525;28;20091;-55
2022/06/15 02:30:59;;;;;;;8.05;6.45;;;12.00;99.90;;;;;;5073421;28;20043;-55
2022/06/15 02:33:31;;;;;;;14.10;7.07;;;11.90;99.90;;;;;;5073368;28;20119;-55
2022/06/15 02:36:01;;;;;;;15.70;7.38;;;11.90;99.90;;;;;;5073270;28;20032;-55
2022/06/15 02:38:30;;;;;;;12.57;6.30;;;11.80;99.90;;;;;;5089883;28;20119;-55
2022/06/15 02:40:56;;;;;;;10.20;6.32;;;11.80;99.90;;;;;;5073196;28;20165;-55
2022/06/15 02:43:27;;;;;;;7.50;5.80;;;11.70;99.90;;;;;;5073002;28;20393;-55
2022/06/15 02:45:57;;;;;;;10.60;6.40;;;11.70;99.90;;;;;;5074424;28;20039;-55
2022/06/15 02:48:29;;;;;;;8.65;6.15;;;11.70;99.90;;;;;;5074488;28;20024;-55
2022/06/15 02:51:05;;;;;;;12.38;6.25;;;11.60;99.90;;;;;;5072697;28;20482;-56
2022/06/15 02:53:37;;;;;;;8.05;5.72;;;11.70;99.90;;;;;;5089835;28;20090;-55
2022/06/15 02:56:04;;;;;;;6.72;5.32;;;11.80;99.90;;;;;;5073178;28;20037;-55
2022/06/15 02:58:34;;;;;;;14.43;5.90;;;11.80;99.90;;;;;;5071720;28;20033;-55
2022/06/15 03:01:01;;;;;;;7.85;5.18;;;11.70;99.90;;;;;;5073093;28;20440;-55
2022/06/15 03:03:30;;;;;;;11.90;5.38;;;11.80;99.90;;;;;;5072906;28;20090;-55
2022/06/15 03:06:10;;;;;;;9.15;5.65;;;11.80;99.90;;;;;;5072928;28;20040;-55
2022/06/15 03:08:37;;;;;;;9.75;5.80;;;11.70;99.90;;;;;;5072796;28;20027;-55
2022/06/15 03:11:09;;;;;;;8.85;6.15;;;11.70;99.90;;;;;;5072994;28;20034;-55
2022/06/15 03:13:37;;;;;;;8.10;5.78;;;11.60;99.90;;;;;;5072995;28;20024;-55
2022/06/15 03:16:05;;;;;;;10.57;5.70;;;11.60;99.90;;;;;;5072735;28;20036;-55
2022/06/15 03:18:32;;;;;;;8.77;5.57;;;11.60;99.90;;;;;;5072858;28;20032;-55
2022/06/15 03:21:04;;;;;;;11.88;5.82;;;11.60;99.90;;;;;;5072946;28;20041;-55
2022/06/15 03:23:31;;;;;;;11.70;5.95;;;11.70;99.90;;;;;;5074033;28;20032;-55
2022/06/15 03:26:01;;;;;;;10.30;6.15;;;11.70;99.90;;;;;;5072705;28;20117;-55
2022/06/15 03:28:28;;;;;;;13.73;5.85;;;11.80;99.90;;;;;;5072526;28;20029;-55
2022/06/15 03:30:55;;;;;;;9.40;5.90;;;11.80;99.90;;;;;;5072702;28;20031;-55
2022/06/15 03:33:21;;;;;;;13.15;6.43;;;11.80;99.90;;;;;;5072718;28;20029;-55
2022/06/15 03:35:47;;;;;;;12.60;5.90;;;11.90;99.90;;;;;;5072593;28;20039;-55
2022/06/15 03:38:20;;;;;;;11.63;5.85;;;11.90;99.90;;;;;;5072564;28;20083;-55
2022/06/15 03:40:54;;;;;;;8.25;5.78;;;12.00;99.90;;;;;;5072486;28;20063;-55
2022/06/15 03:43:20;;;;;;;9.00;6.15;;;12.10;99.90;;;;;;5072615;28;20032;-55
2022/06/15 03:45:46;;;;;;;12.75;6.20;;;12.00;99.90;;;;;;5072565;28;20078;-55
2022/06/15 03:48:13;;;;;;;10.45;6.63;;;12.10;99.90;;;;;;5072587;28;20120;-55
2022/06/15 03:50:43;;;;;;;11.48;6.50;;;12.10;99.90;;;;;;5074094;28;20033;-55
2022/06/15 03:53:11;;;;;;;8.90;6.05;;;12.20;99.90;;;;;;5072337;28;20084;-55
2022/06/15 03:55:40;;;;;;;12.80;6.75;;;12.10;99.90;;;;;;5075245;28;20155;-55
2022/06/15 03:58:14;;;;;;;11.90;6.85;;;12.20;99.90;;;;;;5075978;28;20051;-55
2022/06/15 04:00:40;;;;;;;13.07;7.40;;;12.30;99.90;;;;;;5076011;28;20036;-55
2022/06/15 04:03:12;;;;;;;11.88;7.22;;;12.40;99.90;;;;;;5076057;28;20086;-55
2022/06/15 04:05:56;;;;;;;13.20;8.02;;;12.50;99.90;;;;;;5092678;28;20028;-55
2022/06/15 04:08:36;;;;;;;14.75;7.53;;;12.50;99.90;;;;;;5075952;28;20433;-55
2022/06/15 04:11:58;;;;;;;17.52;7.55;;;12.60;99.90;;;;;;5075828;28;20037;-55
2022/06/15 04:14:00;;;;;;;14.40;7.95;;;12.60;99.90;;;;;;5075641;28;20386;-55
2022/06/15 04:16:28;;;;;;;13.60;7.97;;;12.60;99.90;;;;;;5075549;28;20024;-55
2022/06/15 04:18:55;;;;;;;13.43;8.55;;;12.70;99.90;;;;;;5075678;28;20032;-55
2022/06/15 04:21:21;;;;;;;17.48;8.38;;;12.80;99.90;;;;;;5075576;28;20033;-55
2022/06/15 04:23:50;;;;;;;20.20;8.48;;;12.80;99.90;;;;;;5075462;28;20024;-55
2022/06/15 04:26:16;;;;;;;18.30;8.45;;;12.80;99.90;;;;;;5075611;28;20212;-55
2022/06/15 04:28:46;;;;;;;15.93;7.30;;;12.90;99.90;;;;;;5092237;28;20035;-55
2022/06/15 04:31:16;;;;;;;15.60;8.23;;;13.00;99.90;;;;;;5092326;28;20039;-55
2022/06/15 04:33:43;;;;;;;15.15;8.07;;;13.10;99.90;;;;;;5075295;28;20135;-55
2022/06/15 04:36:13;;;;;;;17.63;8.57;;;13.10;99.90;;;;;;5075211;28;20029;-55
2022/06/15 04:38:41;;;;;;;12.75;7.95;;;13.20;99.90;;;;;;5092088;28;20478;-55
2022/06/15 04:41:09;;;;;;;16.30;8.52;;;13.20;99.90;;;;;;5075143;28;20029;-55
2022/06/15 04:43:36;;;;;;;15.77;8.07;;;13.30;99.90;;;;;;5076828;28;20032;-55
2022/06/15 04:46:05;;;;;;;18.15;9.20;;;13.40;99.90;;;;;;5075220;28;20059;-55
2022/06/15 04:48:32;;;;;;;18.75;9.60;;;13.40;99.90;;;;;;5091951;28;20383;-55
2022/06/15 04:51:20;;;;;;;16.45;8.02;;;13.60;99.90;;;;;;5074758;28;20024;-55
2022/06/15 04:53:52;;;;;;;20.23;8.60;;;13.70;99.90;;;;;;5075206;28;20063;-55
2022/06/15 04:56:19;;;;;;;23.20;9.30;;;13.90;99.90;;;;;;5075105;28;20059;-55
2022/06/15 04:58:47;;;;;;;17.30;9.40;;;13.90;99.90;;;;;;5074899;28;20025;-55
2022/06/15 05:01:15;;;;;;;20.75;8.50;;;13.90;99.90;;;;;;5074734;28;20055;-55
2022/06/15 05:03:43;;;;;;;18.42;8.27;;;14.00;99.90;;;;;;5074793;28;20033;-55
2022/06/15 05:06:38;;;;;;;15.55;7.70;;;14.10;99.90;;;;;;5074505;28;20032;-55
2022/06/15 05:09:10;;;;;;;28.58;9.85;;;14.30;99.90;;;;;;5075270;28;20032;-55
2022/06/15 05:11:36;;;;;;;22.63;9.88;;;14.40;99.90;;;;;;5074355;28;20081;-55
2022/06/15 05:14:04;;;;;;;18.48;8.57;;;14.60;99.90;;;;;;5074661;28;20099;-55
2022/06/15 05:16:35;;;;;;;19.50;8.80;;;14.70;99.90;;;;;;5074510;28;20303;-55
2022/06/15 05:19:01;;;;;;;20.63;9.88;;;14.80;99.90;;;;;;5075853;28;20111;-55
2022/06/15 05:21:30;;;;;;;16.05;8.23;;;14.90;99.90;;;;;;5074312;28;20032;-55
2022/06/15 05:23:57;;;;;;;15.75;9.55;;;15.00;99.90;;;;;;5070138;28;20028;-55
2022/06/15 05:26:47;;;;;;;19.05;9.02;;;15.00;99.90;;;;;;5069315;28;20044;-55
2022/06/15 05:29:15;;;;;;;19.17;9.88;;;15.10;99.90;;;;;;5073833;28;20031;-55
2022/06/15 05:31:43;;;;;;;17.10;8.20;;;15.20;99.90;;;;;;5089145;28;20047;-55
2022/06/15 05:34:11;;;;;;;17.75;8.60;;;15.30;99.90;;;;;;5072845;28;20358;-55
2022/06/15 05:36:37;;;;;;;18.85;9.00;;;15.40;99.90;;;;;;5089671;28;20191;-55
2022/06/15 05:39:05;;;;;;;22.48;9.40;;;15.50;99.90;;;;;;5073854;28;20028;-55
2022/06/15 05:41:34;;;;;;;21.40;11.30;;;15.60;99.90;;;;;;5073884;28;20498;-55
2022/06/15 05:44:04;;;;;;;30.77;11.02;;;15.70;99.90;;;;;;5073832;28;20060;-55
2022/06/15 05:46:35;;;;;;;19.45;8.98;;;15.70;99.90;;;;;;5090587;28;20036;-55
2022/06/15 05:49:23;;;;;;;19.30;9.57;;;15.90;99.90;;;;;;5073814;28;20032;-55
2022/06/15 05:51:50;;;;;;;20.90;9.82;;;16.10;99.90;;;;;;5073410;28;20067;-55
2022/06/15 05:54:16;;;;;;;20.67;8.50;;;16.10;99.90;;;;;;5090592;28;20020;-55
2022/06/15 05:56:42;;;;;;;15.82;8.07;;;16.30;99.90;;;;;;5074764;28;20044;-55
2022/06/15 05:59:08;;;;;;;24.23;8.60;;;16.40;99.90;;;;;;5074525;28;20051;-55
2022/06/15 06:01:35;;;;;;;24.08;8.52;;;16.50;99.90;;;;;;5074824;28;20021;-55
2022/06/15 06:04:02;;;;;;;17.48;8.93;;;16.50;99.90;;;;;;5074755;28;20021;-55
2022/06/15 06:06:29;;;;;;;20.60;7.72;;;16.70;99.90;;;;;;5074632;28;20032;-55
2022/06/15 06:08:56;;;;;;;29.13;10.15;;;16.70;99.90;;;;;;5074657;28;20035;-55
2022/06/15 06:11:23;;;;;;;25.25;9.10;;;16.90;99.90;;;;;;5074549;28;20025;-55
2022/06/15 06:13:49;;;;;;;17.40;7.25;;;17.10;99.90;;;;;;5074470;28;20025;-55
2022/06/15 06:16:15;;;;;;;17.15;8.32;;;17.20;99.90;;;;;;5074587;28;20032;-55
2022/06/15 06:18:41;;;;;;;23.98;9.27;;;17.40;99.90;;;;;;5073940;28;20028;-55
2022/06/15 06:21:09;;;;;;;17.33;8.18;;;17.50;99.90;;;;;;5074560;28;20089;-55
2022/06/15 06:23:36;;;;;;;12.82;7.68;;;17.60;99.90;;;;;;5074076;28;20123;-55
2022/06/15 06:26:04;;;;;;;18.60;8.30;;;17.80;99.90;;;;;;5074331;28;20832;-56
2022/06/15 06:28:38;;;;;;;20.33;8.18;;;17.90;99.90;;;;;;5073957;28;20528;-55
2022/06/15 06:31:06;;;;;;;17.77;7.35;;;18.00;99.90;;;;;;5074378;28;20028;-55
2022/06/15 06:33:35;;;;;;;20.00;8.93;;;18.10;99.90;;;;;;5072503;28;20031;-55
2022/06/15 06:36:06;;;;;;;21.27;7.72;;;18.40;99.90;;;;;;5072725;28;20436;-55
2022/06/15 06:38:32;;;;;;;;;;;18.50;99.90;;;;;;5074447;28;20033;-55
2022/06/15 06:40:59;;;;;;;20.58;7.68;;;18.60;99.90;;;;;;5073969;28;19912;-55
2022/06/15 06:43:26;;;;;;;18.05;8.55;;;18.80;99.90;;;;;;5073936;28;20040;-55
2022/06/15 06:45:52;;;;;;;12.43;6.90;;;19.00;99.90;;;;;;5074216;28;20025;-55
2022/06/15 06:48:18;;;;;;;18.60;8.32;;;19.10;96.70;;;;;;5073909;28;20024;-55
2022/06/15 06:50:45;;;;;;;15.93;8.13;;;19.30;97.90;;;;;;5073694;28;20028;-55
2022/06/15 06:53:13;;;;;;;12.57;7.20;;;19.50;99.10;;;;;;5072936;28;20076;-55
2022/06/15 06:55:39;;;;;;;27.15;8.70;;;19.70;97.30;;;;;;5073756;28;20169;-55
2022/06/15 06:58:06;;;;;;;21.55;7.75;;;20.00;98.60;;;;;;5073691;28;20104;-55
2022/06/15 07:00:34;;;;;;;15.20;7.93;;;20.30;97.60;;;;;;5073384;28;20025;-55
2022/06/15 07:03:02;;;;;;;16.75;7.32;;;20.40;93.20;;;;;;5074472;28;20028;-55
2022/06/15 07:05:28;;;;;;;17.70;7.13;;;20.60;91.30;;;;;;5074389;28;20471;-55
2022/06/15 07:07:55;;;;;;;26.85;8.35;;;20.70;91.30;;;;;;5073611;28;20828;-55
2022/06/15 07:10:21;;;;;;;16.92;6.53;;;21.00;92.70;;;;;;5074233;28;20024;-56
2022/06/15 07:12:47;;;;;;;16.13;7.15;;;21.40;86.70;;;;;;5074883;28;20100;-56
2022/06/15 07:15:14;;;;;;;15.23;6.55;;;21.70;80.80;;;;;;5074538;28;20032;-56
2022/06/15 07:17:43;;;;;;;13.25;7.10;;;22.10;84.30;;;;;;5074566;28;20402;-56
2022/06/15 07:20:11;;;;;;;19.60;6.97;;;22.50;78.80;;;;;;5074323;28;20037;-56
2022/06/15 07:22:38;;;;;;;14.63;5.90;;;22.80;74.10;;;;;;5073073;28;20573;-56
2022/06/15 07:25:06;;;;;;;14.95;6.78;;;23.10;70.60;;;;;;5073580;28;20035;-56
2022/06/15 07:27:38;;;;;;;14.65;5.57;;;23.30;63.80;;;;;;5073309;28;20013;-56
2022/06/15 07:30:12;;;;;;;11.82;5.55;;;23.50;67.20;;;;;;5073116;28;20694;-56
2022/06/15 07:32:41;;;;;;;11.15;5.28;;;23.90;66.00;;;;;;5073518;28;20020;-56
2022/06/15 07:35:31;;;;;;;13.57;5.05;;;24.20;64.40;;;;;;5077641;28;20099;-56
2022/06/15 07:37:58;;;;;;;11.52;5.55;;;23.90;58.40;;;;;;5077041;28;20051;-56
2022/06/15 07:40:25;;;;;;;13.65;5.07;;;23.90;62.80;;;;;;5076699;28;20056;-56
2022/06/15 07:42:53;;;;;;;13.65;4.38;;;24.30;64.30;;;;;;5074061;28;20069;-56
2022/06/15 07:45:22;;;;;;;10.05;4.28;;;24.70;61.60;;;;;;5077165;28;20032;-56
2022/06/15 07:50:33;;;;;;;15.93;5.80;;;25.50;52.90;;;;;;5077182;28;20094;-56
2022/06/15 07:53:01;;;;;;;13.02;4.43;;;25.80;56.50;;;;;;5076224;28;20153;-56
2022/06/15 07:55:33;;;;;;;12.07;5.13;;;26.10;54.00;;;;;;5075129;28;20062;-56
2022/06/15 07:58:00;;;;;;;9.80;4.10;;;26.20;53.50;;;;;;5076403;28;20435;-56
2022/06/15 08:00:27;;;;;;;14.52;5.20;;;26.40;50.80;;;;;;5076387;28;20036;-56
2022/06/15 08:02:54;;;;;;;12.13;3.90;;;26.50;50.80;;;;;;5076496;28;20056;-56
2022/06/15 08:05:20;;;;;;;11.38;3.40;;;26.80;48.50;;;;;;5076622;28;20030;-56
2022/06/15 08:07:49;;;;;;;9.85;3.78;;;27.20;48.60;;;;;;5076561;28;20026;-56
2022/06/15 08:10:23;;;;;;;6.07;3.30;;;27.40;47.40;;;;;;5076760;28;20024;-56
2022/06/15 08:12:49;;;;;;;10.05;3.70;;;27.60;42.80;;;;;;5077008;28;20054;-56
2022/06/15 08:15:15;;;;;;;7.03;2.95;;;27.60;46.60;;;;;;5076451;28;20044;-56
2022/06/15 08:17:48;;;;;;;4.88;2.72;;;27.70;40.10;;;;;;5076818;28;20028;-56
2022/06/15 08:20:31;;;;;;;5.68;2.50;;;28.10;42.90;;;;;;5076034;28;20028;-56
2022/06/15 08:23:02;;;;;;;4.88;2.53;;;28.20;43.60;;;;;;5076426;28;20032;-56
2022/06/15 08:25:50;;;;;;;5.40;2.50;;;28.20;37.70;;;;;;5076118;28;20068;-56
2022/06/15 08:28:20;;;;;;;11.32;3.10;;;28.30;42.00;;;;;;5076276;28;20020;-56
2022/06/15 08:30:47;;;;;;;6.00;2.40;;;28.60;38.70;;;;;;5073483;28;20032;-56
2022/06/15 08:33:13;;;;;;;5.15;2.83;;;28.50;38.70;;;;;;5076320;28;20095;-56
2022/06/15 08:35:39;;;;;;;6.63;2.33;;;27.80;39.30;;;;;;5076382;28;20056;-56
2022/06/15 08:38:08;;;;;;;5.95;2.58;;;28.10;41.80;;;;;;5076271;28;20024;-56
2022/06/15 08:40:53;;;;;;;7.72;2.88;;;28.70;39.40;;;;;;5075396;28;20556;-56
2022/06/15 08:43:55;;;;;;;6.95;2.50;;;28.70;39.70;;;;;;5056366;28;20478;-56
2022/06/15 08:46:33;;;;;;;5.72;2.90;;;28.70;39.60;;;;;;5056237;28;20033;-56
2022/06/15 08:49:15;;;;;;;9.43;3.38;;;28.80;40.70;;;;;;5061307;28;20074;-56
2022/06/15 08:51:44;;;;;;;6.90;3.20;;;29.10;38.90;;;;;;5055953;28;20045;-56
2022/06/15 08:54:30;;;;;;;9.25;3.72;;;28.10;39.70;;;;;;5068550;28;20021;-56
2022/06/15 08:57:29;;;;;;;5.57;3.00;;;28.60;42.80;;;;;;5073652;28;20028;-56
2022/06/15 09:00:02;;;;;;;5.03;3.20;;;28.80;43.00;;;;;;5075969;28;20071;-56
2022/06/15 09:02:38;;;;;;;4.60;2.72;;;29.00;41.50;;;;;;5075770;28;20028;-56
2022/06/15 09:05:46;;;;;;;9.07;3.17;;;29.00;38.40;;;;;;5078066;28;20021;-56
2022/06/15 09:08:31;;;;;;;9.93;3.00;;;29.30;39.10;;;;;;5056098;28;20052;-56
2022/06/15 09:11:21;;;;;;;9.77;3.33;;;29.50;40.10;;;;;;5055550;28;20051;-56
2022/06/15 09:14:21;;;;;;;13.07;3.45;;;29.10;38.70;;;;;;5070203;28;20031;-56
2022/06/15 09:17:03;;;;;;;9.93;3.78;;;29.60;39.30;;;;;;5044133;28;20060;-56
2022/06/15 09:19:38;;;;;;;14.38;3.47;;;29.80;38.20;;;;;;5075623;28;20027;-56
2022/06/15 09:22:22;;;;;;;5.38;2.33;;;30.20;39.60;;;;;;5075877;28;20058;-56
2022/06/15 09:25:09;;;;;;;5.60;2.65;;;29.50;36.80;;;;;;5075450;28;20557;-55
2022/06/15 09:27:47;;;;;;;11.00;3.50;;;29.10;35.00;;;;;;5075329;28;20381;-56
2022/06/15 09:30:19;;;;;;;4.80;2.65;;;29.40;36.90;;;;;;5075282;28;20028;-56
2022/06/15 09:33:09;;;;;;;6.70;2.85;;;29.90;38.50;;;;;;5074859;28;20021;-56
2022/06/15 09:35:43;;;;;;;6.55;3.33;;;30.10;37.20;;;;;;5075394;28;20025;-56
2022/06/15 09:38:13;;;;;;;6.38;2.40;;;29.50;38.40;;;;;;5075144;28;20064;-56
2022/06/15 09:40:48;;;;;;;11.10;3.45;;;29.30;35.70;;;;;;5074957;28;20119;-56
2022/06/15 09:43:25;;;;;;;9.63;2.80;;;28.40;39.30;;;;;;5075107;28;20039;-56
2022/06/15 09:46:12;;;;;;;7.18;3.00;;;27.80;37.20;;;;;;5074901;28;20064;-56
2022/06/15 09:49:01;;;;;;;3.83;2.50;;;28.10;38.10;;;;;;5074833;28;20028;-55
2022/06/15 09:51:26;;;;;;;6.88;3.28;;;27.60;38.20;;;;;;5074350;28;20519;-56
2022/06/15 09:54:13;;;;;;;6.15;3.15;;;28.00;39.10;;;;;;5074553;28;20070;-56
2022/06/15 09:56:40;;;;;;;12.35;3.92;;;28.50;39.40;;;;;;5073158;28;20485;-56
2022/06/15 09:59:13;;;;;;;21.67;6.00;;;28.60;38.60;;;;;;5072524;28;20028;-56
2022/06/15 10:01:45;;;;;;;5.80;2.58;;;29.30;41.30;;;;;;5073810;28;20080;-55
2022/06/15 10:04:21;;;;;;;8.82;3.15;;;29.80;39.30;;;;;;5073810;28;20121;-56
2022/06/15 10:06:51;;;;;;;10.32;3.55;;;29.80;35.90;;;;;;5074392;28;20146;-55
2022/06/15 10:09:23;;;;;;;11.10;4.00;;;30.00;37.00;;;;;;5074298;28;20461;-56
2022/06/15 10:11:52;;;;;;;8.00;3.17;;;29.90;39.40;;;;;;5074570;28;20036;-55
2022/06/15 10:14:31;;;;;;;23.88;6.13;;;29.50;37.10;;;;;;5074579;28;20462;-56
2022/06/15 10:17:03;;;;;;;10.00;3.28;;;29.20;39.10;;;;;;5074274;28;20478;-56
2022/06/15 10:19:33;;;;;;;11.35;3.53;;;29.70;37.00;;;;;;5073515;28;20060;-56
2022/06/15 10:22:06;;;;;;;17.23;3.40;;;28.50;39.80;;;;;;5070754;28;20021;-56
2022/06/15 10:24:35;;;;;;;9.98;3.00;;;29.70;42.80;;;;;;5073207;28;20025;-56
2022/06/15 10:27:19;;;;;;;12.27;4.55;;;29.60;37.50;;;;;;5073865;28;20020;-56
2022/06/15 10:30:17;;;;;;;17.98;4.55;;;30.10;37.40;;;;;;5073167;28;20510;-56
2022/06/15 10:33:01;;;;;;;4.13;2.15;;;30.40;37.10;;;;;;5070941;28;20024;-56
2022/06/15 10:35:34;;;;;;;6.70;2.95;;;31.00;38.10;;;;;;5069966;28;20147;-56
2022/06/15 10:38:04;;;;;;;4.53;2.28;;;30.40;33.90;;;;;;5068382;28;20025;-56
2022/06/15 10:40:36;;;;;;;9.25;3.40;;;30.10;35.80;;;;;;5071435;28;20025;-56
2022/06/15 10:43:02;;;;;;;4.68;2.60;;;30.00;37.00;;;;;;5071330;28;20048;-56
2022/06/15 10:45:30;;;;;;;7.20;2.60;;;30.40;34.00;;;;;;5072229;28;20114;-56
2022/06/15 10:48:24;;;;;;;8.15;3.60;;;29.60;33.90;;;;;;5069840;28;20021;-55
2022/06/15 10:51:04;;;;;;;5.72;2.92;;;29.60;38.10;;;;;;5069479;28;20466;-56
2022/06/15 10:53:35;;;;;;;7.83;3.00;;;29.60;36.40;;;;;;5072659;28;20537;-55
2022/06/15 11:04:45;;;;;;;8.73;2.30;;;31.10;36.40;;;;;;5075219;28;20035;-55
2022/06/15 11:07:21;;;;;;;6.15;2.53;;;31.40;37.30;;;;;;5078088;28;20390;-55
2022/06/15 11:09:53;;;;;;;4.20;2.28;;;31.60;37.10;;;;;;5077573;28;20024;-55
2022/06/15 11:12:34;;;;;;;7.60;3.42;;;31.40;33.80;;;;;;5077413;28;20086;-55
2022/06/15 11:18:01;;;;;;;3.40;1.95;;;30.90;34.30;;;;;;5057783;28;20029;-55
2022/06/15 11:18:29;;;;;;;8.80;2.30;;;31.60;36.30;;;;;;5064912;28;20763;-55
2022/06/15 11:21:07;;;;;;;6.90;2.40;;;31.90;34.90;;;;;;5075340;28;20033;-55
2022/06/15 11:23:43;;;;;;;3.40;2.15;;;31.80;36.10;;;;;;5074552;28;20030;-55
2022/06/15 11:29:27;;;;;;;5.05;2.47;;;32.00;32.80;;;;;;5066295;28;20396;-55
2022/06/15 11:31:54;;;;;;;8.15;2.88;;;31.40;32.80;;;;;;5068662;28;20040;-55
2022/06/15 11:34:24;;;;;;;4.03;2.38;;;31.20;35.30;;;;;;5076998;28;20025;-55
2022/06/15 11:36:52;;;;;;;;;;;30.00;33.60;;;;;;5077647;28;20428;-55
2022/06/15 11:39:32;;;;;;;3.90;2.42;;;29.50;34.90;;;;;;5077180;28;20018;-55
2022/06/15 11:41:59;;;;;;;6.82;2.95;;;28.50;35.20;;;;;;5074982;28;20020;-54
2022/06/15 11:44:31;;;;;;;9.43;3.95;;;28.90;37.60;;;;;;5077993;28;20115;-54
2022/06/15 11:47:03;;;;;;;6.82;3.15;;;29.90;35.00;;;;;;5076878;28;20028;-54
2022/06/15 11:49:33;;;;;;;8.75;2.85;;;29.70;34.50;;;;;;5077946;28;20029;-54
2022/06/15 11:52:14;;;;;;;4.93;1.92;;;30.00;36.00;;;;;;5077313;28;20390;-55
2022/06/15 11:55:07;;;;;;;5.20;2.65;;;31.00;36.90;;;;;;5077112;28;20470;-54
2022/06/15 11:57:55;;;;;;;9.05;3.05;;;31.50;34.30;;;;;;5077122;28;20386;-54
2022/06/15 12:00:21;;;;;;;4.68;2.75;;;31.80;34.80;;;;;;5076265;28;20020;-55
2022/06/15 12:03:20;;;;;;;6.82;3.00;;;32.00;34.30;;;;;;5076098;28;20027;-54
2022/06/15 12:05:49;;;;;;;13.37;4.53;;;32.30;34.30;;;;;;5077271;28;20036;-54
2022/06/15 12:08:38;;;;;;;8.53;3.13;;;30.40;34.50;;;;;;5056817;28;20447;-54
2022/06/15 12:14:24;;;;;;;3.88;2.15;;;31.80;35.60;;;;;;5075772;28;20032;-54
2022/06/15 12:16:59;;;;;;;5.55;2.25;;;32.00;36.70;;;;;;5075611;28;20028;-54
2022/06/15 12:19:39;;;;;;;3.80;2.08;;;32.30;33.30;;;;;;5065567;28;20561;-54
2022/06/15 12:22:04;;;;;;;;;;;32.40;32.20;;;;;;5076242;28;20032;-54
2022/06/15 12:24:41;;;;;;;6.90;2.10;;;32.40;34.10;;;;;;5074044;28;20319;-54
2022/06/15 12:27:20;;;;;;;10.82;2.90;;;32.00;29.10;;;;;;5076156;28;20431;-54
2022/06/15 12:30:26;;;;;;;12.90;3.00;;;30.30;31.30;;;;;;5075478;28;20064;-54
2022/06/15 12:33:19;;;;;;;3.28;1.88;;;31.30;34.00;;;;;;5074367;28;20024;-54
2022/06/15 12:36:16;;;;;;;5.68;1.92;;;32.00;34.20;;;;;;5074445;28;20086;-54
2022/06/15 12:39:01;;;;;;;13.43;3.58;;;31.00;33.10;;;;;;5075154;28;20029;-54
2022/06/15 12:44:34;;;;;;;10.57;2.85;;;30.20;33.10;;;;;;5073869;28;20041;-54
2022/06/15 12:47:01;;;;;;;6.57;2.58;;;30.00;34.00;;;;;;5075986;28;20024;-54
2022/06/15 12:49:44;;;;;;;7.15;2.67;;;30.80;31.70;;;;;;5076545;28;20092;-54
2022/06/15 12:52:14;;;;;;;3.80;1.73;;;30.80;33.10;;;;;;5075411;28;20379;-54
2022/06/15 12:54:43;;;;;;;;;;;31.00;37.00;;;;;;5076584;28;20031;-54
2022/06/15 12:57:36;;;;;;;10.77;3.38;;;30.80;33.30;;;;;;5075703;28;19916;-54
2022/06/15 13:00:46;;;;;;;6.70;2.90;;;31.00;35.50;;;;;;5075905;28;20032;-54
2022/06/15 13:03:39;;;;;;;3.83;2.13;;;30.30;34.60;;;;;;5044771;28;20036;-54
2022/06/15 13:06:34;;;;;;;3.15;1.75;;;29.90;34.60;;;;;;5075796;28;20056;-54
2022/06/15 13:09:19;;;;;;;4.22;2.67;;;29.50;35.70;;;;;;5075773;28;20036;-54
2022/06/15 13:11:58;;;;;;;6.00;2.92;;;30.20;34.50;;;;;;5073485;28;20424;-54
2022/06/15 13:14:28;;;;;;;4.15;2.20;;;30.50;38.40;;;;;;5074021;28;20040;-54
2022/06/15 13:17:07;;;;;;;4.25;3.00;;;30.60;34.50;;;;;;5074927;28;20027;-53
2022/06/15 13:19:47;;;;;;;11.13;4.43;;;29.50;35.40;;;;;;5063972;28;20074;-54
2022/06/15 13:22:21;;;;;;;4.87;2.43;;;29.60;38.30;;;;;;5075370;28;20111;-54
2022/06/15 13:24:54;;;;;;;5.53;2.35;;;28.90;36.80;;;;;;5075457;28;20040;-54
2022/06/15 13:27:26;;;;;;;5.72;2.45;;;28.90;38.80;;;;;;5075110;28;20084;-54
2022/06/15 13:30:25;;;;;;;5.25;2.72;;;29.60;38.50;;;;;;5075732;28;20039;-54
2022/06/15 13:32:59;;;;;;;9.50;2.83;;;30.10;38.20;;;;;;5075366;28;20016;-54
2022/06/15 13:35:31;;;;;;;3.08;2.05;;;29.20;37.80;;;;;;5075442;28;20036;-54
2022/06/15 13:38:14;;;;;;;18.38;4.38;;;29.10;37.30;;;;;;5075326;28;20028;-54